首页
METAR-TAF:

METAR-TAF

机场 :

Pirassununga, 圣保罗州, 巴西

纬度: 21-59S, 经度: 047-20W, 海拔: 597米

当前天气观测

该预报发布于1小时和13分钟前的11:00 UTC
风速5节,风向东转东南
温度 11°C
湿度 87%
气压 1025 hPa
能见度10公里或以上
1500米以下无云,无积雨云

METAR: SBYS 231100Z 11005KT CAVOK 11/09 Q1025

时间: 09:13 (12:13 UTC)

预报

该预报发布于9小时和13分钟前的03:00 UTC
预报有效从23日的 06点(UTC)到 23日的 18点(UTC)
风速3节,风向南转南东
能见度10公里或以上
1500米以下无云,无积雨云

TAF: SBYS 230300Z 2306/2318 16003KT CAVOK TN09/2309Z TX29/2318Z RMK PCQ

超过4000个机场的气象观测和天气预报(METAR&TAF报告)。

可查询的气象台以黄色和红色小点在地图上表示。

将鼠标移到小点上方,可查看气象台名称。

然后点击查看天气观测和预报。

如需切换地图:点击带黑十字的绿色按钮放大地图;点击带横线的绿色按钮缩小地图;或者点击绿色箭头查看邻近地区的地图。


METAR-TAF: